Terminal Aerodrome Forecast
Issued by NWS Knoxville/Tri Cities, TN

Home | Current Version | Previous Version | Text Only | Print | Product List | Glossary On
Versions: 1 2 3 4 5 6 7 8 9 10 11 12 13 14 15 16 17 18 19 20 21 22 23 24 25 26 27 28 29 30 31 32 33 34 35 36 37 38 39
000
FTUS44 KMRX 111726
TAFTRI
TAF
KTRI 111726Z 1118/1218 VRB04KT P6SM SCT040
     FM120100 00000KT P6SM SCT250
     FM120800 00000KT 4SM BR FEW008
     FM121300 24004KT P6SM FEW040=

USA.gov is the U.S. government's official web portal to all federal, state and local government web resources and services.